createdAt,value
2019-03-21T00:00:21.183Z,14.83
2019-03-21T00:05:28.885Z,14.17
2019-03-21T00:10:36.503Z,15.66
2019-03-21T00:15:44.135Z,16.59
2019-03-21T00:20:51.718Z,15.30
2019-03-21T00:25:59.371Z,15.44
2019-03-21T00:31:06.954Z,15.81
2019-03-21T00:36:14.626Z,16.70
2019-03-21T00:41:22.264Z,16.81
2019-03-21T00:46:29.905Z,16.38
2019-03-21T00:51:37.513Z,15.73
2019-03-21T00:56:45.211Z,17.27
2019-03-21T01:01:52.849Z,15.86
2019-03-21T01:07:00.503Z,16.64
2019-03-21T01:12:08.137Z,15.25
2019-03-21T01:17:15.779Z,15.71
2019-03-21T01:22:23.364Z,15.09
2019-03-21T01:27:31.029Z,16.42
2019-03-21T01:32:38.661Z,18.75
2019-03-21T01:37:46.279Z,17.13
2019-03-21T01:42:53.870Z,17.44
2019-03-21T01:48:01.537Z,16.98
2019-03-21T01:53:09.131Z,17.94
2019-03-21T01:58:16.783Z,18.91
2019-03-21T02:03:24.414Z,19.27
2019-03-21T02:08:32.019Z,17.75
2019-03-21T02:13:39.598Z,18.04
2019-03-21T02:18:47.221Z,18.78
2019-03-21T02:23:54.873Z,16.80
2019-03-21T02:29:02.587Z,16.54
2019-03-21T02:34:10.210Z,17.57
2019-03-21T02:39:17.888Z,15.86
2019-03-21T02:44:25.516Z,16.90
2019-03-21T02:49:33.207Z,15.57
2019-03-21T02:54:40.844Z,17.58
2019-03-21T02:59:48.516Z,16.69
2019-03-21T03:04:56.108Z,15.86
2019-03-21T03:10:03.754Z,16.51
2019-03-21T03:15:21.755Z,16.79
2019-03-21T03:20:18.574Z,16.17
2019-03-21T03:25:26.190Z,17.09
2019-03-21T03:30:33.846Z,17.82
2019-03-21T03:35:41.452Z,17.15
2019-03-21T03:40:49.162Z,16.86
2019-03-21T03:45:56.802Z,16.48
2019-03-21T03:51:04.431Z,17.06
2019-03-21T03:56:12.048Z,18.97
2019-03-21T04:01:19.726Z,18.56
2019-03-21T04:06:27.309Z,16.71
2019-03-21T04:11:34.941Z,15.80
2019-03-21T04:16:42.585Z,17.08
2019-03-21T04:21:50.241Z,16.80
2019-03-21T04:26:57.837Z,16.13
2019-03-21T04:32:05.483Z,16.06
2019-03-21T04:37:13.102Z,17.85
2019-03-21T04:42:20.773Z,17.87
2019-03-21T04:47:28.418Z,17.14
2019-03-21T04:52:36.039Z,16.98
2019-03-21T04:57:43.642Z,17.71
2019-03-21T05:02:51.269Z,17.28
2019-03-21T05:07:58.850Z,15.59
2019-03-21T05:13:06.517Z,18.96
2019-03-21T05:18:14.146Z,17.55
2019-03-21T05:23:21.860Z,19.35
2019-03-21T05:28:29.465Z,16.82
2019-03-21T05:33:37.133Z,17.51
2019-03-21T05:38:44.763Z,17.47
2019-03-21T05:43:52.416Z,17.35
2019-03-21T05:49:00.053Z,17.88
2019-03-21T05:54:07.823Z,16.77
2019-03-21T05:59:15.443Z,16.70
2019-03-21T06:04:23.071Z,15.67
2019-03-21T06:09:30.683Z,18.41
2019-03-21T06:14:38.378Z,17.57
2019-03-21T06:19:45.979Z,18.23
2019-03-21T06:24:53.648Z,20.22
2019-03-21T06:30:01.256Z,18.59
2019-03-21T06:35:08.893Z,19.99
2019-03-21T06:40:16.478Z,17.24
2019-03-21T06:45:24.144Z,17.81
2019-03-21T06:50:31.735Z,17.50
2019-03-21T06:55:39.369Z,17.37
2019-03-21T07:00:46.995Z,16.91
2019-03-21T07:05:54.664Z,17.58
2019-03-21T07:11:02.293Z,15.52
2019-03-21T07:16:09.959Z,15.53
2019-03-21T07:21:17.599Z,15.53
2019-03-21T07:26:25.293Z,15.68
2019-03-21T07:31:32.882Z,16.64
2019-03-21T07:36:40.562Z,14.82
2019-03-21T07:41:48.181Z,14.22
2019-03-21T07:46:55.818Z,14.35
2019-03-21T07:52:03.412Z,14.06
2019-03-21T07:57:11.099Z,14.97
2019-03-21T08:02:18.728Z,15.31
2019-03-21T08:07:26.430Z,15.89
2019-03-21T08:12:34.056Z,13.70
2019-03-21T08:17:41.752Z,13.01
2019-03-21T08:22:49.338Z,13.24
2019-03-21T08:27:56.985Z,11.92
2019-03-21T08:33:04.609Z,11.61
2019-03-21T08:38:12.256Z,20.14
2019-03-21T08:43:19.859Z,12.03
2019-03-21T08:48:27.566Z,11.22
2019-03-21T08:53:35.206Z,11.02
2019-03-21T08:58:43.086Z,12.21
2019-03-21T09:03:50.602Z,12.19
2019-03-21T09:08:58.227Z,11.96
2019-03-21T09:14:05.810Z,12.06
2019-03-21T09:19:13.498Z,12.79
2019-03-21T09:24:21.109Z,10.80
2019-03-21T09:29:28.833Z,10.26
2019-03-21T09:34:36.415Z,12.07
2019-03-21T09:39:44.112Z,10.74
2019-03-21T09:44:51.721Z,9.46
2019-03-21T09:49:59.482Z,10.17
2019-03-21T09:55:07.045Z,11.66
2019-03-21T10:00:14.750Z,11.58
2019-03-21T10:05:22.353Z,10.54
2019-03-21T10:10:30.033Z,11.28
2019-03-21T10:15:37.633Z,11.93
2019-03-21T10:20:45.273Z,12.31
2019-03-21T10:25:52.881Z,12.41
2019-03-21T10:31:00.538Z,13.54
2019-03-21T10:36:08.123Z,11.88
2019-03-21T10:41:15.813Z,13.02
2019-03-21T10:46:23.438Z,12.05
2019-03-21T10:51:31.119Z,13.90
2019-03-21T10:56:38.579Z,14.64
2019-03-21T11:01:46.273Z,14.23
2019-03-21T11:06:53.869Z,13.53
2019-03-21T11:12:01.604Z,15.94
2019-03-21T11:17:09.211Z,42.92
2019-03-21T11:22:16.895Z,14.74
2019-03-21T11:27:24.529Z,13.87
2019-03-21T11:32:32.189Z,13.69
2019-03-21T11:37:39.809Z,13.32
2019-03-21T11:42:47.485Z,12.78
2019-03-21T11:47:55.066Z,16.30
2019-03-21T11:53:02.753Z,13.88
2019-03-21T11:58:10.364Z,13.85
2019-03-21T12:03:18.150Z,15.87
2019-03-21T12:08:25.785Z,12.97
2019-03-21T12:13:33.445Z,13.25
2019-03-21T12:18:41.059Z,14.26
2019-03-21T12:23:48.742Z,14.85
2019-03-21T12:28:56.369Z,15.65
2019-03-21T12:34:04.068Z,14.23
2019-03-21T12:39:11.713Z,16.81
2019-03-21T12:44:19.375Z,14.90
2019-03-21T12:49:26.982Z,17.97
2019-03-21T12:54:34.600Z,15.29
2019-03-21T12:59:42.210Z,14.71
2019-03-21T13:04:49.878Z,13.64
2019-03-21T13:09:57.491Z,16.78
2019-03-21T13:15:05.148Z,16.68
2019-03-21T13:20:12.756Z,13.00
2019-03-21T13:25:20.401Z,13.90
2019-03-21T13:30:28.009Z,13.08
2019-03-21T13:35:35.667Z,12.91
2019-03-21T13:40:43.264Z,11.96
2019-03-21T13:45:50.942Z,13.72
2019-03-21T13:50:58.530Z,13.64
2019-03-21T13:56:06.270Z,13.28
2019-03-21T14:01:13.869Z,13.25
2019-03-21T14:06:21.547Z,12.52
2019-03-21T14:11:29.155Z,14.42
2019-03-21T14:16:36.822Z,13.71
2019-03-21T14:21:44.450Z,13.48
2019-03-21T14:26:52.067Z,13.43
2019-03-21T14:31:59.650Z,14.14
2019-03-21T14:37:07.267Z,12.51
2019-03-21T14:42:14.873Z,12.73
2019-03-21T14:47:22.508Z,12.68
2019-03-21T14:52:30.142Z,14.12
2019-03-21T14:57:37.801Z,15.89
2019-03-21T15:02:45.404Z,15.59
2019-03-21T15:07:53.051Z,14.94
2019-03-21T15:13:00.644Z,13.47
2019-03-21T15:18:08.283Z,13.02
2019-03-21T15:23:15.911Z,15.60
2019-03-21T15:28:23.580Z,15.50
2019-03-21T15:33:31.179Z,14.94
2019-03-21T15:38:38.861Z,13.84
2019-03-21T15:43:46.457Z,16.69
2019-03-21T15:48:54.146Z,14.40
2019-03-21T15:54:01.766Z,13.86
2019-03-21T15:59:09.419Z,13.78
2019-03-21T16:04:17.011Z,14.44
2019-03-21T16:09:24.657Z,14.41
2019-03-21T16:14:32.264Z,18.74
2019-03-21T16:19:39.962Z,16.44
2019-03-21T16:24:47.565Z,15.00
2019-03-21T16:29:55.250Z,15.78
2019-03-21T16:35:02.874Z,17.45
2019-03-21T16:40:13.058Z,14.71
2019-03-21T16:45:17.650Z,14.30
2019-03-21T16:50:25.276Z,15.05
2019-03-21T16:55:32.880Z,13.82
2019-03-21T17:00:40.548Z,14.46
2019-03-21T17:05:48.156Z,13.17
2019-03-21T17:10:55.812Z,16.06
2019-03-21T17:16:05.631Z,14.76
2019-03-21T17:21:10.606Z,14.55
2019-03-21T17:26:18.198Z,14.51
2019-03-21T17:31:25.954Z,16.05
2019-03-21T17:36:33.575Z,16.32
2019-03-21T17:41:43.340Z,17.57
2019-03-21T17:46:48.403Z,15.81
2019-03-21T17:51:56.075Z,16.95
2019-03-21T17:57:03.699Z,18.40
2019-03-21T18:02:11.399Z,16.97
2019-03-21T18:07:19.041Z,18.00
2019-03-21T18:12:26.680Z,20.51
2019-03-21T18:17:34.259Z,22.87
2019-03-21T18:22:41.953Z,21.42
2019-03-21T18:27:49.593Z,21.68
2019-03-21T18:32:57.297Z,24.12
2019-03-21T18:38:04.901Z,24.27
2019-03-21T18:43:12.601Z,27.02
2019-03-21T18:48:20.208Z,21.77
2019-03-21T18:53:27.880Z,20.57
2019-03-21T18:58:35.479Z,21.27
2019-03-21T19:03:43.199Z,19.95
2019-03-21T19:08:50.800Z,17.88
2019-03-21T19:13:58.502Z,18.44
2019-03-21T19:19:06.152Z,19.00
2019-03-21T19:24:13.834Z,19.45
2019-03-21T19:29:21.495Z,20.73
2019-03-21T19:34:29.132Z,19.77
2019-03-21T19:39:36.731Z,19.48
2019-03-21T19:44:44.498Z,20.50
2019-03-21T19:49:52.068Z,23.03
2019-03-21T19:54:59.754Z,22.10
2019-03-21T20:00:07.358Z,22.47
2019-03-21T20:05:15.101Z,22.46
2019-03-21T20:10:22.719Z,21.81
2019-03-21T20:15:30.534Z,20.74
2019-03-21T20:20:38.187Z,21.58
2019-03-21T20:25:45.880Z,22.44
2019-03-21T20:30:53.477Z,22.38
2019-03-21T20:36:01.134Z,20.73
2019-03-21T20:41:08.777Z,21.98
2019-03-21T20:46:16.447Z,21.88
2019-03-21T20:51:24.034Z,22.99
2019-03-21T20:56:31.717Z,22.82
2019-03-21T21:01:39.438Z,21.96
2019-03-21T21:06:47.105Z,22.45
2019-03-21T21:11:54.747Z,22.22
2019-03-21T21:17:02.423Z,21.14
2019-03-21T21:22:10.035Z,22.36
2019-03-21T21:27:17.718Z,21.83
2019-03-21T21:32:25.358Z,20.41
2019-03-21T21:37:33.049Z,21.54
2019-03-21T21:42:40.722Z,22.48
2019-03-21T21:47:48.364Z,23.95
2019-03-21T21:52:55.983Z,22.46
2019-03-21T21:58:03.671Z,23.21
2019-03-21T22:03:11.313Z,21.77
2019-03-21T22:08:19.075Z,24.48
2019-03-21T22:13:26.720Z,23.70
2019-03-21T22:18:34.338Z,22.80
2019-03-21T22:23:41.959Z,22.85
2019-03-21T22:28:49.690Z,23.36
2019-03-21T22:33:57.420Z,24.13
2019-03-21T22:39:05.102Z,24.84
2019-03-21T22:44:12.715Z,23.43
2019-03-21T22:49:20.469Z,23.22
2019-03-21T22:54:28.103Z,25.46
2019-03-21T22:59:35.780Z,23.08
2019-03-21T23:04:43.414Z,25.71
